Time;durP1;ratioP1;P1;durP2;ratioP2;P2;SDS_P1;SDS_P2;PMS_P1;PMS_P2;Temp;Humidity;BMP_temperature;BMP_pressure;BME280_temperature;BME280_humidity;BME280_pressure;Samples;Min_cycle;Max_cycle;Signal;HPM_P1;HPM_P2
2023/01/25 00:02:01;;;;;;;;;;;;;;;2.38;78.91;101154.84;5093314;28;19916;-42
2023/01/25 00:04:27;;;;;;;;;;;;;;;2.61;77.35;101155.72;5093594;28;19919;-42
2023/01/25 00:06:52;;;;;;;;;;;;;;;2.79;77.86;101153.47;5093374;28;19969;-42
2023/01/25 00:09:18;;;;;;;;;;;;;;;2.53;77.03;101130.03;5093483;28;19912;-42
2023/01/25 00:11:43;;;;;;;;;;;;;;;2.19;78.41;101160.66;5092965;28;20295;-42
2023/01/25 00:14:10;;;;;;;;;;;;;;;2.49;78.57;101159.28;5093315;28;19912;-41
2023/01/25 00:16:36;;;;;;;;;;;;;;;2.11;80.58;101160.38;5093299;28;19916;-41
2023/01/25 00:19:01;;;;;;;;;;;;;;;2.27;80.09;101157.44;5093203;28;19922;-42
2023/01/25 00:21:26;;;;;;;;;;;;;;;2.35;79.15;101160.31;5092813;28;19928;-41
2023/01/25 00:23:52;;;;;;;;;;;;;;;2.35;79.69;101158.53;5093106;28;19912;-40
2023/01/25 00:26:17;;;;;;;;;;;;;;;2.20;80.11;101157.06;5092854;28;19935;-41
2023/01/25 00:28:47;;;;;;;;;;;;;;;2.23;80.48;101162.09;5092778;28;20284;-41
2023/01/25 00:31:15;;;;;;;;;;;;;;;2.06;79.86;101159.88;5093106;28;19912;-42
2023/01/25 00:33:54;;;;;;;;;;;;;;;2.04;80.20;101156.53;5092876;28;20434;-43
2023/01/25 00:36:30;;;;;;;;;;;;;;;2.04;79.84;101157.38;5092812;28;19940;-43
2023/01/25 00:38:56;;;;;;;;;;;;;;;2.10;80.73;101161.34;5092712;28;19912;-42
2023/01/25 00:41:21;;;;;;;;;;;;;;;2.27;79.54;101158.28;5092668;28;20014;-41
2023/01/25 00:43:46;;;;;;;;;;;;;;;2.06;80.40;101158.09;5092533;28;19947;-40
2023/01/25 00:46:15;;;;;;;;;;;;;;;2.01;81.54;101162.00;5092609;28;19912;-41
2023/01/25 00:48:41;;;;;;;;;;;;;;;1.51;82.60;101167.38;5092423;28;19958;-41
2023/01/25 00:51:06;;;;;;;;;;;;;;;2.14;80.91;101163.59;5092015;28;20050;-41
2023/01/25 00:53:32;;;;;;;;;;;;;;;2.23;79.47;101167.34;5092376;28;19909;-41
2023/01/25 00:55:57;;;;;;;;;;;;;;;2.15;79.07;101156.56;5092255;28;19912;-41
2023/01/25 00:58:22;;;;;;;;;;;;;;;2.23;79.42;101171.75;5092291;28;20432;-42
2023/01/25 01:00:47;;;;;;;;;;;;;;;2.20;79.92;101162.31;5092374;28;19916;-42
2023/01/25 01:03:13;;;;;;;;;;;;;;;2.02;79.13;101161.03;5092447;28;19916;-42
2023/01/25 01:05:38;;;;;;;;;;;;;;;2.17;80.34;101164.31;5092360;28;19919;-42
2023/01/25 01:08:03;;;;;;;;;;;;;;;2.27;78.62;101163.53;5091414;28;20418;-42
2023/01/25 01:10:29;;;;;;;;;;;;;;;2.34;79.51;101167.38;5092408;28;19912;-41
2023/01/25 01:12:54;;;;;;;;;;;;;;;2.29;79.08;101166.06;5092151;28;19912;-42
2023/01/25 01:15:19;;;;;;;;;;;;;;;2.31;79.34;101156.25;5092331;28;20019;-42
2023/01/25 01:17:44;;;;;;;;;;;;;;;2.28;78.90;101151.22;5092237;28;20330;-41
2023/01/25 01:20:10;;;;;;;;;;;;;;;2.30;79.04;101152.81;5091941;28;20022;-42
2023/01/25 01:22:35;;;;;;;;;;;;;;;2.15;78.90;101153.94;5092135;28;19912;-41
2023/01/25 01:25:01;;;;;;;;;;;;;;;1.98;80.34;101139.44;5091930;28;19969;-41
2023/01/25 01:27:26;;;;;;;;;;;;;;;2.37;78.93;101147.09;5092121;28;19947;-42
2023/01/25 01:29:51;;;;;;;;;;;;;;;2.13;78.70;101145.31;5092138;28;19912;-41
2023/01/25 01:32:17;;;;;;;;;;;;;;;2.02;79.34;101135.63;5091980;28;20364;-42
2023/01/25 01:34:43;;;;;;;;;;;;;;;1.91;79.42;101131.16;5091835;28;19920;-43
2023/01/25 01:37:08;;;;;;;;;;;;;;;1.72;80.01;101139.56;5091874;28;19912;-42
2023/01/25 01:39:33;;;;;;;;;;;;;;;2.04;79.80;101138.16;5091719;28;19975;-42
2023/01/25 01:41:59;;;;;;;;;;;;;;;2.04;78.97;101131.09;5091855;28;19920;-42
2023/01/25 01:44:59;;;;;;;;;;;;;;;1.77;80.17;101136.59;5091178;28;20280;-42
2023/01/25 01:47:27;;;;;;;;;;;;;;;2.10;78.60;101129.81;5048803;28;19949;-42
2023/01/25 01:49:57;;;;;;;;;;;;;;;2.28;77.40;101122.31;5083343;28;20264;-42
2023/01/25 01:52:31;;;;;;;;;;;;;;;2.19;77.91;101125.66;5091931;28;19912;-42
2023/01/25 01:55:00;;;;;;;;;;;;;;;2.47;77.66;101119.97;5091606;28;19913;-42
2023/01/25 01:57:30;;;;;;;;;;;;;;;2.36;77.19;101135.72;5091702;28;19912;-42
2023/01/25 02:00:01;;;;;;;;;;;;;;;1.94;77.82;101122.22;5091391;28;19912;-42
2023/01/25 02:02:27;;;;;;;;;;;;;;;2.09;78.60;101134.22;5091745;28;19927;-42
2023/01/25 02:04:55;;;;;;;;;;;;;;;2.02;77.96;101126.91;5091762;28;20391;-43
2023/01/25 02:07:28;;;;;;;;;;;;;;;2.09;79.36;101128.13;5091666;28;19941;-43
2023/01/25 02:09:53;;;;;;;;;;;;;;;2.07;77.78;101137.91;5091677;28;19934;-43
2023/01/25 02:12:19;;;;;;;;;;;;;;;1.58;78.65;101134.50;5091638;28;20423;-43
2023/01/25 02:14:48;;;;;;;;;;;;;;;2.10;78.21;101127.19;5091124;28;19912;-41
2023/01/25 02:17:13;;;;;;;;;;;;;;;2.21;78.08;101124.59;5091131;28;20631;-41
2023/01/25 02:19:58;;;;;;;;;;;;;;;2.13;78.05;101124.31;5094195;28;19920;-42
2023/01/25 02:22:30;;;;;;;;;;;;;;;2.25;76.94;101133.09;5087628;28;19920;-41
2023/01/25 02:25:14;;;;;;;;;;;;;;;2.28;77.13;101123.16;5095054;28;19912;-40
2023/01/25 02:27:41;;;;;;;;;;;;;;;2.34;77.23;101116.59;5095243;28;19912;-41
2023/01/25 02:30:07;;;;;;;;;;;;;;;2.53;75.81;101116.91;5094997;28;20388;-41
2023/01/25 02:32:32;;;;;;;;;;;;;;;2.18;76.47;101113.47;5094972;28;19912;-43
2023/01/25 02:34:57;;;;;;;;;;;;;;;2.21;77.07;101121.09;5095172;28;19919;-48
2023/01/25 02:37:23;;;;;;;;;;;;;;;2.11;77.13;101115.72;5095153;28;19915;-49
2023/01/25 02:39:48;;;;;;;;;;;;;;;2.45;76.14;101123.69;5095341;28;19923;-49
2023/01/25 02:42:13;;;;;;;;;;;;;;;2.37;75.56;101134.78;5094734;28;19916;-43
2023/01/25 02:44:39;;;;;;;;;;;;;;;2.40;75.58;101120.56;5094439;28;19918;-42
2023/01/25 02:47:05;;;;;;;;;;;;;;;2.36;74.97;101117.31;5094496;28;19912;-43
2023/01/25 02:49:33;;;;;;;;;;;;;;;2.23;75.14;101119.19;5094628;28;19912;-43
2023/01/25 02:51:58;;;;;;;;;;;;;;;2.31;74.94;101122.09;5094764;28;19916;-41
2023/01/25 02:54:25;;;;;;;;;;;;;;;2.46;74.08;101115.69;5087556;28;19928;-41
2023/01/25 02:56:50;;;;;;;;;;;;;;;2.13;75.25;101108.56;5076707;28;19920;-41
2023/01/25 02:59:17;;;;;;;;;;;;;;;2.12;75.32;101110.34;5083133;28;20288;-41
2023/01/25 03:01:43;;;;;;;;;;;;;;;2.18;75.44;101111.69;5074417;28;20375;-41
2023/01/25 03:04:09;;;;;;;;;;;;;;;2.28;75.08;101117.06;5074136;28;20394;-46
2023/01/25 03:06:34;;;;;;;;;;;;;;;2.23;74.37;101127.94;5074173;28;19916;-42
2023/01/25 03:09:00;;;;;;;;;;;;;;;2.23;74.64;101121.81;5074356;28;20110;-42
2023/01/25 03:11:25;;;;;;;;;;;;;;;2.43;74.46;101125.59;5073931;28;19923;-42
2023/01/25 03:13:50;;;;;;;;;;;;;;;2.55;72.96;101127.25;5073916;28;19919;-42
2023/01/25 03:16:16;;;;;;;;;;;;;;;2.31;73.34;101122.94;5091642;28;19943;-42
2023/01/25 03:18:41;;;;;;;;;;;;;;;2.71;72.64;101119.06;5094090;28;20384;-42
2023/01/25 03:21:07;;;;;;;;;;;;;;;2.35;73.39;101126.16;5093802;28;19932;-42
2023/01/25 03:23:32;;;;;;;;;;;;;;;2.38;73.38;101118.06;5093930;28;19912;-42
2023/01/25 03:26:24;;;;;;;;;;;;;;;2.47;72.45;101122.59;5094172;28;19924;-42
2023/01/25 03:28:49;;;;;;;;;;;;;;;2.59;71.99;101114.72;5091452;28;19969;-42
2023/01/25 03:31:15;;;;;;;;;;;;;;;2.33;73.42;101109.69;5092828;28;20006;-42
2023/01/25 03:33:40;;;;;;;;;;;;;;;2.27;73.48;101105.75;5093837;28;19915;-43
2023/01/25 03:36:06;;;;;;;;;;;;;;;2.27;73.38;101123.28;5093334;28;20308;-43
2023/01/25 03:38:31;;;;;;;;;;;;;;;2.33;72.80;101107.06;5093226;28;20376;-40
2023/01/25 03:40:57;;;;;;;;;;;;;;;2.36;72.73;101109.44;5093203;28;19927;-43
2023/01/25 03:43:22;;;;;;;;;;;;;;;2.14;72.76;101124.22;5093317;28;19912;-42
2023/01/25 03:45:52;;;;;;;;;;;;;;;2.17;73.28;101114.41;5093402;28;19912;-43
2023/01/25 03:48:17;;;;;;;;;;;;;;;2.43;72.52;101126.41;5093698;28;19916;-43
2023/01/25 03:50:47;;;;;;;;;;;;;;;2.19;72.44;101126.50;5093363;28;20015;-43
2023/01/25 03:53:25;;;;;;;;;;;;;;;2.10;73.47;101117.50;5093193;28;19919;-42
2023/01/25 03:55:51;;;;;;;;;;;;;;;2.28;72.52;101114.44;5093454;28;19958;-42
2023/01/25 03:58:16;;;;;;;;;;;;;;;2.38;72.58;101118.06;5093368;28;19912;-41
2023/01/25 04:00:41;;;;;;;;;;;;;;;2.11;72.74;101126.22;5093003;28;20413;-41
2023/01/25 04:03:06;;;;;;;;;;;;;;;2.10;72.88;101121.94;5092802;28;19916;-42
2023/01/25 04:05:32;;;;;;;;;;;;;;;2.01;72.47;101127.88;5092913;28;20388;-41
2023/01/25 04:07:57;;;;;;;;;;;;;;;2.19;72.82;101126.50;5092658;28;19916;-42
2023/01/25 04:10:22;;;;;;;;;;;;;;;2.24;72.02;101126.97;5092701;28;20264;-41
2023/01/25 04:12:47;;;;;;;;;;;;;;;2.40;71.40;101120.56;5093042;28;19919;-42
2023/01/25 04:15:13;;;;;;;;;;;;;;;2.44;71.64;101124.66;5091451;28;19923;-42
2023/01/25 04:17:38;;;;;;;;;;;;;;;2.40;71.78;101125.81;5092636;28;19920;-42
2023/01/25 04:20:03;;;;;;;;;;;;;;;2.47;71.85;101119.97;5092239;28;19938;-42
2023/01/25 04:22:29;;;;;;;;;;;;;;;2.59;71.43;101118.22;5092764;28;20380;-42
2023/01/25 04:24:54;;;;;;;;;;;;;;;2.57;72.22;101127.16;5092829;28;20348;-42
2023/01/25 04:27:19;;;;;;;;;;;;;;;2.56;72.48;101128.13;5092673;28;19947;-42
2023/01/25 04:29:44;;;;;;;;;;;;;;;2.08;75.00;101127.28;5092825;28;19951;-43
2023/01/25 04:32:10;;;;;;;;;;;;;;;2.49;78.25;101127.75;5092589;28;19912;-43
2023/01/25 04:34:35;;;;;;;;;;;;;;;3.74;75.84;101131.09;5092605;28;19912;-43
2023/01/25 04:37:00;;;;;;;;;;;;;;;4.17;71.35;101136.31;5092728;28;20379;-42
2023/01/25 04:39:26;;;;;;;;;;;;;;;4.79;71.52;101141.66;5092522;28;20018;-43
2023/01/25 04:41:51;;;;;;;;;;;;;;;5.24;67.75;101143.91;5092439;28;19935;-43
2023/01/25 04:44:16;;;;;;;;;;;;;;;5.98;67.76;101135.56;5091972;28;19916;-42
2023/01/25 04:46:41;;;;;;;;;;;;;;;5.77;61.41;101148.88;5092472;28;20049;-42
2023/01/25 04:49:07;;;;;;;;;;;;;;;4.51;63.65;101130.81;5092220;28;20311;-42
2023/01/25 04:51:32;;;;;;;;;;;;;;;3.77;66.50;101139.59;5092511;28;19994;-42
2023/01/25 04:53:57;;;;;;;;;;;;;;;3.47;67.11;101138.47;5092267;28;20261;-36
2023/01/25 04:56:22;;;;;;;;;;;;;;;3.28;68.06;101138.28;5092174;28;20008;-36
2023/01/25 04:58:48;;;;;;;;;;;;;;;2.91;68.80;101149.03;5092041;28;20364;-36
2023/01/25 05:01:13;;;;;;;;;;;;;;;2.66;69.58;101140.44;5091907;28;19916;-36
2023/01/25 05:03:38;;;;;;;;;;;;;;;3.08;69.04;101122.25;5091522;28;19955;-36
2023/01/25 05:06:04;;;;;;;;;;;;;;;2.61;68.85;101144.34;5091660;28;19919;-36
2023/01/25 05:08:29;;;;;;;;;;;;;;;2.09;70.66;101142.09;5091576;28;20011;-36
2023/01/25 05:10:54;;;;;;;;;;;;;;;2.14;71.47;101142.59;5088114;28;19969;-36
2023/01/25 05:13:19;;;;;;;;;;;;;;;2.64;70.49;101139.72;5090734;28;19916;-36
2023/01/25 05:15:45;;;;;;;;;;;;;;;2.35;70.19;101145.38;5090777;28;19978;-36
2023/01/25 05:18:10;;;;;;;;;;;;;;;2.03;71.17;101141.72;5090840;28;19919;-37
2023/01/25 05:20:35;;;;;;;;;;;;;;;1.96;71.87;101154.44;5091022;28;19924;-36
2023/01/25 05:23:01;;;;;;;;;;;;;;;2.01;71.83;101143.63;5089960;28;19970;-36
2023/01/25 05:28:12;;;;;;;;;;;;;;;2.53;70.47;101152.81;5084541;28;19973;-35
2023/01/25 05:30:37;;;;;;;;;;;;;;;2.24;70.72;101148.00;5091167;28;20297;-35
2023/01/25 05:33:02;;;;;;;;;;;;;;;2.09;71.77;101146.50;5091269;28;19916;-37
2023/01/25 05:35:27;;;;;;;;;;;;;;;2.39;71.20;101147.81;5091869;28;19922;-37
2023/01/25 05:37:56;;;;;;;;;;;;;;;2.92;69.57;101148.09;5091624;28;20002;-35
2023/01/25 05:40:21;;;;;;;;;;;;;;;2.59;69.87;101144.50;5091004;28;19920;-37
2023/01/25 05:42:56;;;;;;;;;;;;;;;2.39;70.31;101151.25;5090955;28;19916;-36
2023/01/25 05:45:21;;;;;;;;;;;;;;;2.49;70.13;101151.41;5090519;28;19912;-35
2023/01/25 05:47:50;;;;;;;;;;;;;;;2.73;69.47;101160.03;5090738;28;19942;-36
2023/01/25 05:50:16;;;;;;;;;;;;;;;2.66;67.94;101158.00;5089315;28;20106;-36
2023/01/25 05:52:41;;;;;;;;;;;;;;;2.34;68.94;101163.91;5088870;28;20003;-36
2023/01/25 05:55:07;;;;;;;;;;;;;;;2.35;69.68;101158.53;5092476;28;20003;-36
2023/01/25 05:57:32;;;;;;;;;;;;;;;2.25;70.02;101160.19;5092969;28;19913;-35
2023/01/25 05:59:57;;;;;;;;;;;;;;;3.15;67.32;101163.88;5093439;28;19915;-36
2023/01/25 06:02:22;;;;;;;;;;;;;;;2.85;66.66;101166.13;5093447;28;19973;-36
2023/01/25 06:04:48;;;;;;;;;;;;;;;2.31;68.02;101172.03;5093745;28;19912;-37
2023/01/25 06:07:13;;;;;;;;;;;;;;;2.10;69.67;101161.34;5095338;28;20390;-36
2023/01/25 06:09:38;;;;;;;;;;;;;;;2.12;69.35;101157.63;5095069;28;19912;-38
2023/01/25 06:12:05;;;;;;;;;;;;;;;2.92;67.12;101154.19;5095448;28;19937;-37
2023/01/25 06:14:30;;;;;;;;;;;;;;;3.11;65.76;101153.59;5095717;28;19912;-36
2023/01/25 06:16:56;;;;;;;;;;;;;;;3.55;64.55;101171.25;5095133;28;20296;-36
2023/01/25 06:19:21;;;;;;;;;;;;;;;3.21;64.51;101161.59;5095127;28;19916;-36
2023/01/25 06:21:46;;;;;;;;;;;;;;;3.28;64.58;101154.06;5094576;28;19920;-36
2023/01/25 06:24:12;;;;;;;;;;;;;;;3.16;65.08;101155.88;5094248;28;19927;-37
2023/01/25 06:26:37;;;;;;;;;;;;;;;3.01;65.44;101157.06;5094252;28;19912;-36
2023/01/25 06:29:05;;;;;;;;;;;;;;;3.45;64.30;101166.72;5094447;28;20344;-37
2023/01/25 06:31:31;;;;;;;;;;;;;;;3.19;64.97;101163.50;5094477;28;20267;-35
2023/01/25 06:33:59;;;;;;;;;;;;;;;3.43;64.58;101162.53;5094419;28;19912;-36
2023/01/25 06:36:24;;;;;;;;;;;;;;;3.76;62.77;101168.69;5094267;28;20015;-37
2023/01/25 06:38:50;;;;;;;;;;;;;;;2.91;64.68;101164.81;5093134;28;19998;-36
2023/01/25 06:41:16;;;;;;;;;;;;;;;2.85;64.85;101162.69;5094050;28;20368;-35
2023/01/25 06:43:41;;;;;;;;;;;;;;;2.49;66.73;101161.91;5094000;28;19912;-37
2023/01/25 06:46:08;;;;;;;;;;;;;;;2.25;66.91;101159.34;5101011;28;19911;-37
2023/01/25 06:48:33;;;;;;;;;;;;;;;2.40;67.27;101155.56;5114750;28;20291;-36
2023/01/25 06:51:07;;;;;;;;;;;;;;;2.28;67.76;101161.72;5113471;28;19912;-36
2023/01/25 06:53:34;;;;;;;;;;;;;;;2.44;67.28;101161.44;5114052;28;19919;-36
2023/01/25 06:56:02;;;;;;;;;;;;;;;2.94;66.48;101156.72;5114278;28;19934;-36
2023/01/25 06:58:28;;;;;;;;;;;;;;;2.73;66.08;101165.28;5114278;28;20469;-35
2023/01/25 07:00:58;;;;;;;;;;;;;;;2.64;67.04;101134.44;5113715;28;20011;-36
2023/01/25 07:03:23;;;;;;;;;;;;;;;2.50;67.56;101164.41;5112293;28;19912;-35
2023/01/25 07:05:49;;;;;;;;;;;;;;;2.26;68.81;101167.09;5104857;28;19922;-36
2023/01/25 07:08:15;;;;;;;;;;;;;;;3.07;67.29;101164.47;5109277;28;19981;-36
2023/01/25 07:10:41;;;;;;;;;;;;;;;3.01;66.17;101162.31;5099528;28;19912;-37
2023/01/25 07:13:06;;;;;;;;;;;;;;;3.22;65.44;101171.16;5103215;28;20395;-37
2023/01/25 07:15:31;;;;;;;;;;;;;;;2.60;66.77;101164.56;5106540;28;19912;-35
2023/01/25 07:17:56;;;;;;;;;;;;;;;2.40;67.21;101147.69;5097396;28;20015;-35
2023/01/25 07:20:22;;;;;;;;;;;;;;;2.66;67.32;101165.88;5109359;28;19924;-36
2023/01/25 07:22:47;;;;;;;;;;;;;;;2.97;65.84;101169.63;5101268;28;20014;-36
2023/01/25 07:25:13;;;;;;;;;;;;;;;2.59;65.86;101173.41;5105661;28;20382;-36
2023/01/25 07:27:38;;;;;;;;;;;;;;;2.41;66.47;101174.78;5098970;28;20078;-35
2023/01/25 07:30:03;;;;;;;;;;;;;;;2.50;66.35;101174.94;5109617;28;20002;-36
2023/01/25 07:32:29;;;;;;;;;;;;;;;2.47;66.52;101174.31;5098379;28;20006;-36
2023/01/25 07:34:54;;;;;;;;;;;;;;;2.76;66.10;101177.38;5105167;28;19912;-36
2023/01/25 07:37:19;;;;;;;;;;;;;;;2.77;65.60;101183.47;5105070;28;19954;-37
2023/01/25 07:39:48;;;;;;;;;;;;;;;2.47;66.63;101175.16;5107452;28;20368;-36
2023/01/25 07:42:14;;;;;;;;;;;;;;;2.48;66.78;101179.47;5110773;28;19912;-37
2023/01/25 07:44:39;;;;;;;;;;;;;;;2.30;66.62;101188.72;5094492;28;19973;-35
2023/01/25 07:47:04;;;;;;;;;;;;;;;2.71;66.79;101182.16;5102549;28;20015;-36
2023/01/25 07:49:30;;;;;;;;;;;;;;;3.11;64.06;101179.06;5099745;28;19912;-36
2023/01/25 07:51:55;;;;;;;;;;;;;;;2.54;65.27;101184.25;5109963;28;19916;-36
2023/01/25 07:54:20;;;;;;;;;;;;;;;2.51;65.42;101186.28;5096603;28;19919;-35
2023/01/25 07:56:45;;;;;;;;;;;;;;;2.38;65.48;101191.63;5105541;28;19954;-37
2023/01/25 07:59:11;;;;;;;;;;;;;;;2.31;64.79;101183.38;5103306;28;19919;-36
2023/01/25 08:01:38;;;;;;;;;;;;;;;2.68;64.66;101191.09;5097879;28;20432;-36
2023/01/25 08:04:03;;;;;;;;;;;;;;;2.45;65.44;101192.00;5109042;28;20379;-36
2023/01/25 08:06:34;;;;;;;;;;;;;;;2.26;65.83;101182.84;5097257;28;19918;-37
2023/01/25 08:09:00;;;;;;;;;;;;;;;2.42;65.19;101189.59;5103445;28;19912;-36
2023/01/25 08:11:27;;;;;;;;;;;;;;;2.33;65.88;101191.13;5105268;28;19961;-37
2023/01/25 08:13:52;;;;;;;;;;;;;;;2.53;65.26;101195.75;5096092;28;19912;-37
2023/01/25 08:16:19;;;;;;;;;;;;;;;2.92;63.95;101184.91;5095467;28;19972;-36
2023/01/25 08:18:52;;;;;;;;;;;;;;;2.39;65.94;101181.97;5105508;28;19943;-37
2023/01/25 08:21:17;;;;;;;;;;;;;;;2.47;65.88;101185.66;5103373;28;20268;-36
2023/01/25 08:23:43;;;;;;;;;;;;;;;1.93;66.91;101187.03;5097184;28;19912;-37
2023/01/25 08:26:09;;;;;;;;;;;;;;;2.30;66.02;101184.34;5093758;28;19919;-36
2023/01/25 08:28:34;;;;;;;;;;;;;;;2.63;65.08;101189.78;5106342;28;20092;-36
2023/01/25 08:31:07;;;;;;;;;;;;;;;2.25;66.28;101191.72;5100351;28;20416;-36
2023/01/25 08:33:32;;;;;;;;;;;;;;;2.63;64.91;101188.00;5098468;28;19960;-36
2023/01/25 08:35:57;;;;;;;;;;;;;;;2.41;65.02;101194.03;5108732;28;20293;-36
2023/01/25 08:38:23;;;;;;;;;;;;;;;2.44;66.12;101185.91;5096043;28;20276;-36
2023/01/25 08:40:48;;;;;;;;;;;;;;;2.24;65.92;101187.38;5100487;28;19926;-36
2023/01/25 08:43:13;;;;;;;;;;;;;;;2.70;65.47;101189.22;5100805;28;20025;-36
2023/01/25 08:45:38;;;;;;;;;;;;;;;2.47;65.48;101187.47;5093068;28;19912;-37
2023/01/25 08:48:04;;;;;;;;;;;;;;;2.36;65.89;101188.25;5108293;28;19984;-36
2023/01/25 08:50:29;;;;;;;;;;;;;;;2.49;66.13;101186.38;5096209;28;19967;-36
2023/01/25 08:52:55;;;;;;;;;;;;;;;2.50;65.88;101182.81;5103168;28;19920;-37
2023/01/25 08:55:20;;;;;;;;;;;;;;;2.48;66.28;101191.78;5103485;28;19919;-36
2023/01/25 08:57:45;;;;;;;;;;;;;;;2.85;65.04;101179.28;5096117;28;19919;-36
2023/01/25 09:00:11;;;;;;;;;;;;;;;2.85;64.60;101187.16;5107738;28;20002;-37
2023/01/25 09:02:36;;;;;;;;;;;;;;;2.67;65.69;101192.06;5097338;28;19911;-35
2023/01/25 09:05:01;;;;;;;;;;;;;;;2.19;66.71;101179.03;5102272;28;19912;-36
2023/01/25 09:07:27;;;;;;;;;;;;;;;2.60;65.85;101182.13;5104849;28;19920;-36
2023/01/25 09:09:52;;;;;;;;;;;;;;;2.62;65.95;101175.78;5093613;28;20474;-36
2023/01/25 09:12:17;;;;;;;;;;;;;;;2.81;65.82;101166.50;5094338;28;19915;-36
2023/01/25 09:14:43;;;;;;;;;;;;;;;2.57;66.00;101166.56;5106423;28;19938;-36
2023/01/25 09:17:08;;;;;;;;;;;;;;;2.53;66.31;101166.84;5091155;28;19916;-36
2023/01/25 09:19:33;;;;;;;;;;;;;;;2.86;65.93;101156.47;5104896;28;20299;-36
2023/01/25 09:21:59;;;;;;;;;;;;;;;2.99;65.43;101157.19;5110248;28;19920;-37
2023/01/25 09:24:24;;;;;;;;;;;;;;;3.40;63.59;101150.44;5095471;28;19938;-37
2023/01/25 09:26:49;;;;;;;;;;;;;;;2.84;65.06;101153.13;5103384;28;19919;-41
2023/01/25 09:29:14;;;;;;;;;;;;;;;2.61;65.71;101152.25;5090481;28;19912;-36
2023/01/25 09:31:42;;;;;;;;;;;;;;;2.43;67.08;101162.38;5105611;28;19912;-35
2023/01/25 09:34:07;;;;;;;;;;;;;;;2.62;66.99;101153.94;5094749;28;20299;-37
2023/01/25 09:36:33;;;;;;;;;;;;;;;2.86;65.79;101143.31;5105441;28;20368;-36
2023/01/25 09:38:58;;;;;;;;;;;;;;;3.12;64.46;101138.63;5096582;28;19919;-36
2023/01/25 09:41:32;;;;;;;;;;;;;;;2.92;65.32;101133.16;5103734;28;19972;-37
2023/01/25 09:44:11;;;;;;;;;;;;;;;2.79;65.41;101124.53;5094211;28;19912;-36
2023/01/25 09:46:51;;;;;;;;;;;;;;;2.96;64.93;101115.34;5105500;28;19912;-36
2023/01/25 09:49:22;;;;;;;;;;;;;;;2.85;65.08;101124.06;5102705;28;20330;-37
2023/01/25 09:51:54;;;;;;;;;;;;;;;3.56;62.65;101115.84;5095122;28;20106;-36
2023/01/25 09:54:19;;;;;;;;;;;;;;;3.27;63.93;101112.91;5070597;28;19917;-36
2023/01/25 09:56:47;;;;;;;;;;;;;;;2.89;65.23;101108.88;5084785;28;19941;-37
2023/01/25 09:59:16;;;;;;;;;;;;;;;2.91;65.21;101106.97;5099620;28;19916;-36
2023/01/25 10:01:50;;;;;;;;;;;;;;;3.25;64.51;101113.03;5105383;28;19916;-35
2023/01/25 10:04:23;;;;;;;;;;;;;;;3.39;63.94;101100.56;5093911;28;19956;-36
2023/01/25 10:06:53;;;;;;;;;;;;;;;3.59;63.68;101101.59;5102777;28;20400;-36
2023/01/25 10:09:37;;;;;;;;;;;;;;;3.67;63.05;101100.00;5102304;28;19923;-36
2023/01/25 10:12:11;;;;;;;;;;;;;;;3.20;63.30;101101.19;5072649;28;19912;-36
2023/01/25 10:14:36;;;;;;;;;;;;;;;2.69;65.44;101087.63;5104315;28;19911;-36
2023/01/25 10:17:09;;;;;;;;;;;;;;;2.99;65.21;101091.44;5099497;28;20355;-37
2023/01/25 10:19:55;;;;;;;;;;;;;;;3.67;62.85;101075.47;5096506;28;20406;-36
2023/01/25 10:22:26;;;;;;;;;;;;;;;3.51;63.21;101074.09;5066135;28;19984;-36
2023/01/25 10:25:00;;;;;;;;;;;;;;;3.24;63.35;101071.06;5102298;28;19920;-36
2023/01/25 10:27:25;;;;;;;;;;;;;;;3.16;63.80;101074.31;5103059;28;19912;-36
2023/01/25 10:29:54;;;;;;;;;;;;;;;3.11;64.00;101066.78;5093455;28;19912;-37
2023/01/25 10:32:25;;;;;;;;;;;;;;;3.86;61.97;101061.63;5076998;28;19960;-36
2023/01/25 10:34:53;;;;;;;;;;;;;;;3.60;62.25;101056.72;5102673;28;19988;-36
2023/01/25 10:37:21;;;;;;;;;;;;;;;3.15;63.77;101056.84;5102100;28;19911;-37
2023/01/25 10:39:55;;;;;;;;;;;;;;;3.05;63.12;101048.03;5095956;28;20277;-35
2023/01/25 10:42:21;;;;;;;;;;;;;;;3.00;64.35;101040.50;5081251;28;19916;-36
2023/01/25 10:44:46;;;;;;;;;;;;;;;3.23;63.53;101043.91;5106644;28;19918;-36
2023/01/25 10:47:26;;;;;;;;;;;;;;;3.51;62.73;101033.78;5104458;28;19934;-36
2023/01/25 10:49:52;;;;;;;;;;;;;;;2.95;64.71;101032.13;5097099;28;19948;-36
2023/01/25 10:52:17;;;;;;;;;;;;;;;3.28;64.42;101030.41;5110096;28;19947;-36
2023/01/25 10:54:43;;;;;;;;;;;;;;;3.35;64.83;101023.69;5100448;28;19912;-36
2023/01/25 10:57:11;;;;;;;;;;;;;;;3.57;63.84;101035.06;5103633;28;19923;-36
2023/01/25 10:59:36;;;;;;;;;;;;;;;3.79;63.08;101031.47;5106859;28;20418;-36
2023/01/25 11:02:20;;;;;;;;;;;;;;;3.66;62.23;101024.63;5096271;28;19930;-37
2023/01/25 11:04:47;;;;;;;;;;;;;;;3.39;63.82;101037.41;5106163;28;19919;-36
2023/01/25 11:07:26;;;;;;;;;;;;;;;2.90;65.04;101023.78;5104303;28;20367;-36
2023/01/25 11:09:52;;;;;;;;;;;;;;;3.11;64.92;101027.31;5096208;28;19919;-35
2023/01/25 11:12:18;;;;;;;;;;;;;;;3.65;63.53;101022.94;5110021;28;19912;-35
2023/01/25 11:14:44;;;;;;;;;;;;;;;4.04;61.94;101011.84;5100149;28;19919;-37
2023/01/25 11:17:28;;;;;;;;;;;;;;;4.38;61.14;100998.38;5103277;28;19949;-36
2023/01/25 11:20:14;;;;;;;;;;;;;;;3.86;61.87;100999.22;5109251;28;20316;-36
2023/01/25 11:22:47;;;;;;;;;;;;;;;3.62;63.71;100986.34;5099519;28;19916;-35
2023/01/25 11:25:26;;;;;;;;;;;;;;;3.57;64.10;100996.41;5102202;28;19928;-36
2023/01/25 11:28:08;;;;;;;;;;;;;;;3.71;62.87;100979.47;5109619;28;19934;-35
2023/01/25 11:30:33;;;;;;;;;;;;;;;3.70;63.78;100981.25;5106977;28;19954;-35
2023/01/25 11:32:59;;;;;;;;;;;;;;;3.31;64.13;100982.75;5102049;28;19995;-36
2023/01/25 11:35:30;;;;;;;;;;;;;;;3.08;63.69;100988.09;5100570;28;20248;-36
2023/01/25 11:38:13;;;;;;;;;;;;;;;3.10;64.78;100978.31;5109699;28;19915;-36
2023/01/25 11:40:41;;;;;;;;;;;;;;;3.16;63.60;100982.25;5112644;28;20283;-36
2023/01/25 11:43:09;;;;;;;;;;;;;;;3.03;64.70;100981.56;5113008;28;19930;-36
2023/01/25 11:45:34;;;;;;;;;;;;;;;3.19;64.57;100970.63;5098863;28;19912;-37
2023/01/25 11:48:12;;;;;;;;;;;;;;;3.37;63.71;100963.88;5109392;28;20355;-36
2023/01/25 11:50:46;;;;;;;;;;;;;;;3.61;62.03;100973.31;5098119;28;19912;-37
2023/01/25 11:53:11;;;;;;;;;;;;;;;3.64;61.74;100957.25;5101520;28;19912;-38
2023/01/25 11:55:46;;;;;;;;;;;;;;;3.20;62.50;100954.72;5106737;28;19968;-36
2023/01/25 11:58:28;;;;;;;;;;;;;;;3.44;62.51;100954.47;5096127;28;19916;-35
2023/01/25 12:00:53;;;;;;;;;;;;;;;3.22;63.79;100959.84;5104708;28;19963;-36
2023/01/25 12:03:21;;;;;;;;;;;;;;;2.94;65.60;100944.53;5103632;28;19969;-36
2023/01/25 12:05:56;;;;;;;;;;;;;;;3.75;63.30;100944.03;5096564;28;19995;-36
2023/01/25 12:08:21;;;;;;;;;;;;;;;2.97;64.27;100946.09;5096404;28;19995;-37
2023/01/25 12:10:52;;;;;;;;;;;;;;;2.95;64.95;100942.72;5109239;28;19943;-34
2023/01/25 12:13:17;;;;;;;;;;;;;;;3.00;65.04;100931.84;5100414;28;20308;-35
2023/01/25 12:15:46;;;;;;;;;;;;;;;3.58;63.94;100921.75;5107602;28;20398;-37
2023/01/25 12:18:11;;;;;;;;;;;;;;;3.85;63.92;100921.22;5095617;28;20385;-38
2023/01/25 12:20:55;;;;;;;;;;;;;;;3.98;61.78;100923.63;5105981;28;20053;-36
2023/01/25 12:23:20;;;;;;;;;;;;;;;3.85;62.32;100926.47;5104268;28;19919;-36
2023/01/25 12:25:51;;;;;;;;;;;;;;;3.72;62.51;100925.84;5112466;28;19916;-35
2023/01/25 12:28:32;;;;;;;;;;;;;;;3.50;63.35;100919.78;5095303;28;19912;-36
2023/01/25 12:30:57;;;;;;;;;;;;;;;3.50;63.34;100917.13;5103105;28;19919;-36
2023/01/25 12:33:28;;;;;;;;;;;;;;;3.94;62.28;100906.44;5091327;28;19912;-36
2023/01/25 12:36:00;;;;;;;;;;;;;;;3.88;62.00;100906.94;5091729;28;19912;-35
2023/01/25 12:38:45;;;;;;;;;;;;;;;3.81;62.18;100911.91;5107920;28;19956;-37
2023/01/25 12:41:17;;;;;;;;;;;;;;;3.55;62.68;100908.84;5092393;28;19978;-36
2023/01/25 12:44:06;;;;;;;;;;;;;;;3.51;63.08;100910.91;5096550;28;19985;-37
2023/01/25 12:46:38;;;;;;;;;;;;;;;3.92;61.53;100905.69;5078973;28;19922;-35
2023/01/25 12:49:07;;;;;;;;;;;;;;;4.21;60.71;100907.66;5101884;28;20002;-36
2023/01/25 12:51:39;;;;;;;;;;;;;;;3.90;62.00;100908.50;5105140;28;19994;-36
2023/01/25 12:54:16;;;;;;;;;;;;;;;3.85;62.14;100904.56;5095251;28;19924;-36